createdAt,value
2023-05-05T00:00:39.996Z,5.4923
2023-05-05T00:01:42.582Z,6.3308
2023-05-05T00:02:45.289Z,5.9000
2023-05-05T00:03:47.955Z,5.8769
2023-05-05T00:04:50.440Z,6.5462
2023-05-05T00:05:53.019Z,5.9615
2023-05-05T00:06:55.620Z,6.4846
2023-05-05T00:07:58.224Z,6.7846
2023-05-05T00:09:00.845Z,6.6538
2023-05-05T00:10:03.435Z,6.9462
2023-05-05T00:11:06.045Z,7.0000
2023-05-05T00:12:08.632Z,6.3077
2023-05-05T00:13:11.387Z,6.7538
2023-05-05T00:14:13.857Z,6.2154
2023-05-05T00:15:16.464Z,5.3615
2023-05-05T00:16:19.040Z,6.8692
2023-05-05T00:17:21.695Z,6.4846
2023-05-05T00:18:24.256Z,6.8154
2023-05-05T00:19:26.881Z,7.1385
2023-05-05T00:20:29.557Z,7.7846
2023-05-05T00:21:32.094Z,6.8769
2023-05-05T00:22:34.679Z,7.7692
2023-05-05T00:23:37.308Z,8.9077
2023-05-05T00:24:39.900Z,7.4923
2023-05-05T00:25:42.531Z,7.9923
2023-05-05T00:26:45.107Z,8.5769
2023-05-05T00:27:47.739Z,7.7308
2023-05-05T00:28:50.341Z,7.3692
2023-05-05T00:29:52.946Z,7.7077
2023-05-05T00:30:55.533Z,7.2462
2023-05-05T00:31:58.179Z,7.1077
2023-05-05T00:33:00.778Z,7.4385
2023-05-05T00:34:03.369Z,7.0615
2023-05-05T00:35:05.942Z,6.3769
2023-05-05T00:36:08.580Z,7.0692
2023-05-05T00:37:11.167Z,7.5308
2023-05-05T00:38:13.791Z,6.7692
2023-05-05T00:39:16.359Z,6.8462
2023-05-05T00:40:18.989Z,7.6308
2023-05-05T00:41:21.619Z,6.6769
2023-05-05T00:42:24.189Z,8.0692
2023-05-05T00:43:26.771Z,8.3000
2023-05-05T00:44:29.406Z,7.1846
2023-05-05T00:45:31.984Z,7.1154
2023-05-05T00:46:34.616Z,7.7538
2023-05-05T00:47:37.240Z,7.1923
2023-05-05T00:48:39.803Z,7.1846
2023-05-05T00:49:42.377Z,7.2154
2023-05-05T00:50:45.027Z,6.9154
2023-05-05T00:51:47.592Z,7.5000
2023-05-05T00:52:50.219Z,6.7846
2023-05-05T00:53:52.800Z,7.5615
2023-05-05T00:54:55.437Z,7.6846
2023-05-05T00:55:58.001Z,7.5462
2023-05-05T00:57:00.632Z,6.5538
2023-05-05T00:58:03.219Z,7.4077
2023-05-05T00:59:05.843Z,6.5692
2023-05-05T01:00:08.790Z,7.3231
2023-05-05T01:01:11.168Z,7.1077
2023-05-05T01:02:13.618Z,7.2538
2023-05-05T01:03:16.303Z,7.6692
2023-05-05T01:04:18.825Z,6.7000
2023-05-05T01:05:21.438Z,7.4308
2023-05-05T01:06:24.026Z,8.0846
2023-05-05T01:07:26.661Z,6.3154
2023-05-05T01:08:29.243Z,6.7923
2023-05-05T01:09:31.859Z,7.0385
2023-05-05T01:10:34.429Z,6.4769
2023-05-05T01:11:37.047Z,6.6385
2023-05-05T01:12:39.650Z,7.0538
2023-05-05T01:13:42.254Z,7.7077
2023-05-05T01:14:44.826Z,7.2769
2023-05-05T01:15:47.470Z,6.9769
2023-05-05T01:16:50.035Z,6.8385
2023-05-05T01:17:52.751Z,7.9615
2023-05-05T01:18:55.263Z,7.7923
2023-05-05T01:19:57.865Z,7.6231
2023-05-05T01:21:00.481Z,6.6538
2023-05-05T01:22:03.067Z,6.9231
2023-05-05T01:23:05.659Z,7.2462
2023-05-05T01:24:08.313Z,6.7769
2023-05-05T01:25:10.867Z,6.9000
2023-05-05T01:26:14.276Z,6.4923
2023-05-05T01:27:16.073Z,6.6000
2023-05-05T01:28:18.693Z,6.0385
2023-05-05T01:29:21.312Z,6.4231
2023-05-05T01:30:23.907Z,7.3385
2023-05-05T01:31:26.507Z,6.4615
2023-05-05T01:32:29.213Z,6.2308
2023-05-05T01:33:31.678Z,6.4077
2023-05-05T01:34:34.320Z,6.5385
2023-05-05T01:35:36.880Z,6.2462
2023-05-05T01:36:39.519Z,7.1385
2023-05-05T01:37:42.095Z,7.0692
2023-05-05T01:38:44.717Z,6.2538
2023-05-05T01:39:47.305Z,6.7615
2023-05-05T01:40:49.950Z,6.9385
2023-05-05T01:41:52.508Z,6.3923
2023-05-05T01:42:55.130Z,5.1615
2023-05-05T01:45:31.978Z,6.1357
2023-05-05T01:46:34.520Z,5.8769
2023-05-05T01:47:37.168Z,6.8231
2023-05-05T01:48:41.761Z,6.1846
2023-05-05T01:49:42.351Z,5.9692
2023-05-05T01:50:44.932Z,6.3385
2023-05-05T01:51:47.850Z,5.8615
2023-05-05T01:52:50.169Z,6.3769
2023-05-05T01:53:52.767Z,5.8385
2023-05-05T01:54:55.358Z,6.5692
2023-05-05T01:55:57.993Z,5.8231
2023-05-05T01:57:00.568Z,5.9846
2023-05-05T01:58:03.289Z,6.6308
2023-05-05T01:59:05.752Z,6.9462
2023-05-05T02:00:08.657Z,5.8846
2023-05-05T02:01:11.091Z,7.1385
2023-05-05T02:02:13.617Z,6.8923
2023-05-05T02:03:16.345Z,5.8000
2023-05-05T02:04:18.801Z,6.5538
2023-05-05T02:05:21.385Z,6.4769
2023-05-05T02:06:24.011Z,7.3538
2023-05-05T02:07:26.594Z,6.8308
2023-05-05T02:08:29.223Z,6.3615
2023-05-05T02:09:31.798Z,5.9077
2023-05-05T02:10:34.437Z,5.6538
2023-05-05T02:11:37.016Z,6.6462
2023-05-05T02:12:39.696Z,6.6308
2023-05-05T02:13:42.277Z,9.1538
2023-05-05T02:14:44.867Z,7.4231
2023-05-05T02:15:47.433Z,6.9077
2023-05-05T02:16:50.052Z,6.3462
2023-05-05T02:17:52.676Z,6.5000
2023-05-05T02:18:55.256Z,6.5692
2023-05-05T02:19:57.833Z,6.9615
2023-05-05T02:21:00.561Z,7.2462
2023-05-05T02:23:42.086Z,7.8286
2023-05-05T02:24:44.674Z,7.6231
2023-05-05T02:25:47.302Z,6.8154
2023-05-05T02:26:49.891Z,7.9154
2023-05-05T02:27:52.524Z,6.6692
2023-05-05T02:28:55.104Z,7.5154
2023-05-05T02:29:57.859Z,6.7385
2023-05-05T02:31:00.350Z,6.9923
2023-05-05T02:32:02.944Z,6.7000
2023-05-05T02:33:05.602Z,6.8692
2023-05-05T02:34:08.132Z,7.0385
2023-05-05T02:35:10.709Z,7.7615
2023-05-05T02:36:13.550Z,6.8538
2023-05-05T02:37:15.920Z,6.8538
2023-05-05T02:38:18.542Z,6.7538
2023-05-05T02:39:21.130Z,7.8769
2023-05-05T02:40:23.751Z,7.0846
2023-05-05T02:41:26.324Z,6.7077
2023-05-05T02:42:28.959Z,7.1077
2023-05-05T02:43:31.565Z,7.0154
2023-05-05T02:44:34.178Z,6.8308
2023-05-05T02:45:36.749Z,6.5538
2023-05-05T02:46:39.403Z,6.9308
2023-05-05T02:47:41.986Z,7.3154
2023-05-05T02:50:04.355Z,6.9571
2023-05-05T02:51:06.924Z,7.3769
2023-05-05T02:52:09.563Z,7.6769
2023-05-05T02:53:12.242Z,7.1308
2023-05-05T02:54:14.796Z,6.6769
2023-05-05T02:57:10.864Z,7.4786
2023-05-05T02:58:13.437Z,6.4077
2023-05-05T02:59:16.428Z,6.8462
2023-05-05T03:00:18.651Z,7.3231
2023-05-05T03:01:21.317Z,7.4923
2023-05-05T03:02:23.905Z,7.0154
2023-05-05T03:03:26.510Z,7.7462
2023-05-05T03:04:29.095Z,7.3000
2023-05-05T03:05:31.674Z,6.9923
2023-05-05T03:06:34.308Z,6.4692
2023-05-05T03:07:36.888Z,7.2615
2023-05-05T03:08:39.500Z,7.0000
2023-05-05T03:09:42.086Z,7.0308
2023-05-05T03:10:44.718Z,6.2154
2023-05-05T03:11:47.298Z,8.3000
2023-05-05T03:12:49.933Z,6.3462
2023-05-05T03:13:52.495Z,7.4769
2023-05-05T03:14:55.161Z,6.6231
2023-05-05T03:15:57.734Z,7.0000
2023-05-05T03:17:00.319Z,6.3231
2023-05-05T03:18:02.987Z,8.3692
2023-05-05T03:19:05.520Z,7.5538
2023-05-05T03:20:08.353Z,6.8462
2023-05-05T03:21:10.706Z,7.1308
2023-05-05T03:24:06.764Z,6.6786
2023-05-05T03:25:09.396Z,6.8154
2023-05-05T03:26:12.000Z,6.4615
2023-05-05T03:27:14.606Z,6.5462
2023-05-05T03:28:17.192Z,6.8308
2023-05-05T03:29:19.830Z,7.4154
2023-05-05T03:30:22.404Z,7.0615
2023-05-05T03:31:25.047Z,7.2769
2023-05-05T03:32:27.622Z,5.9692
2023-05-05T03:33:30.235Z,6.9769
2023-05-05T03:34:32.819Z,7.1846
2023-05-05T03:35:35.442Z,6.8154
2023-05-05T03:36:38.037Z,7.2846
2023-05-05T03:37:40.658Z,7.4615
2023-05-05T03:38:43.220Z,7.4308
2023-05-05T03:39:45.853Z,8.3154
2023-05-05T03:40:48.430Z,7.9769
2023-05-05T03:41:51.061Z,7.9231
2023-05-05T03:42:53.680Z,8.2231
2023-05-05T03:43:56.280Z,7.7154
2023-05-05T03:44:58.854Z,7.7769
2023-05-05T03:46:01.510Z,7.7385
2023-05-05T03:47:04.049Z,8.1462
2023-05-05T03:48:06.738Z,6.7538
2023-05-05T03:49:09.269Z,7.6077
2023-05-05T03:50:11.896Z,8.0231
2023-05-05T03:51:14.467Z,6.6615
2023-05-05T03:52:17.087Z,7.7846
2023-05-05T03:53:19.667Z,7.4846
2023-05-05T03:54:22.309Z,7.3308
2023-05-05T03:55:24.893Z,6.7308
2023-05-05T03:56:27.507Z,7.5923
2023-05-05T03:57:30.077Z,7.9000
2023-05-05T03:58:32.725Z,7.4308
2023-05-05T04:00:45.446Z,7.7071
2023-05-05T04:01:48.017Z,7.4692
2023-05-05T04:02:50.730Z,7.3769
2023-05-05T04:03:53.321Z,8.2846
2023-05-05T04:04:55.926Z,7.9231
2023-05-05T04:05:58.450Z,7.7000
2023-05-05T04:07:01.070Z,6.8769
2023-05-05T04:08:03.662Z,6.6692
2023-05-05T04:10:40.467Z,7.9571
2023-05-05T04:11:43.247Z,7.5154
2023-05-05T04:12:45.692Z,8.1923
2023-05-05T04:13:48.322Z,8.2615
2023-05-05T04:14:50.898Z,7.5538
2023-05-05T04:15:53.574Z,7.9077
2023-05-05T04:16:56.111Z,7.4538
2023-05-05T04:17:58.819Z,7.4923
2023-05-05T04:19:01.329Z,7.1615
2023-05-05T04:20:03.946Z,7.2308
2023-05-05T04:21:06.563Z,6.6769
2023-05-05T04:22:09.212Z,6.6231
2023-05-05T04:23:11.736Z,7.2077
2023-05-05T04:24:14.362Z,7.8077
2023-05-05T04:25:16.945Z,8.4692
2023-05-05T04:26:19.578Z,7.6385
2023-05-05T04:27:22.141Z,6.6769
2023-05-05T04:28:24.784Z,7.2000
2023-05-05T04:29:27.365Z,7.4769
2023-05-05T04:30:29.986Z,7.6385
2023-05-05T04:31:32.610Z,7.1462
2023-05-05T04:32:35.287Z,7.2538
2023-05-05T04:33:37.789Z,7.9000
2023-05-05T04:34:40.412Z,7.6462
2023-05-05T04:35:42.985Z,7.3385
2023-05-05T04:36:45.711Z,8.8385
2023-05-05T04:37:48.190Z,7.9923
2023-05-05T04:38:50.864Z,7.4308
2023-05-05T04:39:53.412Z,7.8538
2023-05-05T04:40:56.028Z,8.2308
2023-05-05T04:41:58.602Z,8.2923
2023-05-05T04:43:01.241Z,6.5077
2023-05-05T04:44:03.805Z,7.8000
2023-05-05T04:45:06.833Z,7.4923
2023-05-05T04:46:09.058Z,6.9692
2023-05-05T04:47:13.261Z,8.0923
2023-05-05T04:48:14.549Z,6.8231
2023-05-05T04:49:16.849Z,7.1692
2023-05-05T04:50:19.425Z,6.7846
2023-05-05T04:51:22.054Z,7.7923
2023-05-05T04:54:08.472Z,7.5286
2023-05-05T04:55:11.056Z,7.6846
2023-05-05T04:56:13.673Z,7.3846
2023-05-05T04:57:16.264Z,7.2231
2023-05-05T04:58:18.892Z,6.8231
2023-05-05T04:59:21.493Z,7.9538
2023-05-05T05:00:24.112Z,8.2231
2023-05-05T05:01:26.720Z,7.0308
2023-05-05T05:02:29.361Z,8.2154
2023-05-05T05:03:32.070Z,8.1000
2023-05-05T05:04:34.512Z,7.3154
2023-05-05T05:05:37.207Z,7.3615
2023-05-05T05:06:39.701Z,7.1692
2023-05-05T05:07:42.274Z,7.5154
2023-05-05T05:08:44.892Z,7.1462
2023-05-05T05:09:47.480Z,6.5000
2023-05-05T05:10:50.093Z,6.6692
2023-05-05T05:11:52.711Z,7.5538
2023-05-05T05:12:55.358Z,8.2846
2023-05-05T05:13:57.875Z,7.2538
2023-05-05T05:15:00.517Z,6.9308
2023-05-05T05:16:03.091Z,7.9923
2023-05-05T05:17:05.694Z,7.0538
2023-05-05T05:18:08.325Z,7.1154
2023-05-05T05:19:10.896Z,8.3846
2023-05-05T05:20:13.473Z,7.1000
2023-05-05T05:21:16.358Z,6.8154
2023-05-05T05:22:18.679Z,7.8615
2023-05-05T05:23:21.302Z,6.6077
2023-05-05T05:24:23.864Z,6.8000
2023-05-05T05:25:26.493Z,6.9538
2023-05-05T05:26:29.068Z,7.6615
2023-05-05T05:27:31.717Z,7.6077
2023-05-05T05:28:34.333Z,7.1308
2023-05-05T05:29:36.900Z,7.1308
2023-05-05T05:30:39.490Z,6.3538
2023-05-05T05:31:42.169Z,7.2462
2023-05-05T05:32:44.710Z,7.0538
2023-05-05T05:33:47.297Z,7.2385
2023-05-05T05:34:49.868Z,7.0846
2023-05-05T05:35:52.775Z,7.4615
2023-05-05T05:36:55.091Z,8.1231
2023-05-05T05:37:57.699Z,7.0077
2023-05-05T05:39:00.265Z,7.5692
2023-05-05T05:40:02.897Z,7.1769
2023-05-05T05:41:05.463Z,6.5692
2023-05-05T05:42:08.071Z,6.4231
2023-05-05T05:43:10.655Z,7.2692
2023-05-05T05:44:13.292Z,6.3000
2023-05-05T05:45:16.166Z,6.9462
2023-05-05T05:46:18.486Z,7.3462
2023-05-05T05:47:21.035Z,7.5000
2023-05-05T05:48:23.675Z,7.1000
2023-05-05T05:49:26.248Z,6.9385
2023-05-05T05:50:28.870Z,6.7231
2023-05-05T05:51:31.446Z,7.1769
2023-05-05T05:52:34.055Z,7.9923
2023-05-05T05:53:36.649Z,7.2000
2023-05-05T05:54:39.253Z,7.1692
2023-05-05T05:55:41.880Z,6.9769
2023-05-05T05:56:44.460Z,7.0538
2023-05-05T05:57:47.023Z,6.8769
2023-05-05T05:59:54.890Z,7.9857
2023-05-05T06:00:57.508Z,6.9154
2023-05-05T06:02:00.123Z,7.5077
2023-05-05T06:03:02.813Z,7.5462
2023-05-05T06:04:05.341Z,7.3846
2023-05-05T06:05:07.922Z,7.7385
2023-05-05T06:06:10.479Z,6.6000
2023-05-05T06:07:13.100Z,8.0000
2023-05-05T06:08:15.975Z,6.7923
2023-05-05T06:09:18.322Z,7.2615
2023-05-05T06:10:27.981Z,6.8077
2023-05-05T06:11:23.515Z,6.8538
2023-05-05T06:12:26.088Z,7.9462
2023-05-05T06:13:28.721Z,7.6000
2023-05-05T06:14:31.274Z,7.6692
2023-05-05T06:15:33.916Z,7.2000
2023-05-05T06:16:36.478Z,8.0231
2023-05-05T06:17:39.127Z,7.6385
2023-05-05T06:18:41.704Z,7.1154
2023-05-05T06:19:44.295Z,8.3154
2023-05-05T06:20:46.857Z,8.2308
2023-05-05T06:21:49.479Z,7.7231
2023-05-05T06:22:52.085Z,8.3462
2023-05-05T06:23:54.699Z,9.6231
2023-05-05T06:24:57.250Z,8.4846
2023-05-05T06:25:59.867Z,9.3000
2023-05-05T06:27:02.446Z,8.9538
2023-05-05T06:28:05.128Z,9.9615
2023-05-05T06:29:07.621Z,11.4615
2023-05-05T06:30:10.502Z,12.1308
2023-05-05T06:31:12.877Z,13.1000
2023-05-05T06:32:15.438Z,12.7923
2023-05-05T06:33:18.013Z,12.6615
2023-05-05T06:34:20.628Z,11.3692
2023-05-05T06:35:23.203Z,10.4769
2023-05-05T06:36:25.876Z,10.5077
2023-05-05T06:37:28.372Z,9.4462
2023-05-05T06:38:30.989Z,10.6154
2023-05-05T06:39:33.554Z,10.3769
2023-05-05T06:40:36.175Z,10.0308
2023-05-05T06:41:38.782Z,11.3923
2023-05-05T06:42:41.370Z,10.2000
2023-05-05T06:43:43.950Z,9.8462
2023-05-05T06:44:46.545Z,8.6231
2023-05-05T06:45:49.350Z,9.8692
2023-05-05T06:46:51.773Z,12.2692
2023-05-05T06:47:54.328Z,13.1077
2023-05-05T06:48:56.905Z,15.4154
2023-05-05T06:49:59.474Z,9.4154
2023-05-05T06:51:02.927Z,8.6615
2023-05-05T06:52:04.661Z,9.1692
2023-05-05T06:53:07.293Z,8.6154
2023-05-05T06:54:09.841Z,8.4923
2023-05-05T06:55:12.479Z,8.3385
2023-05-05T06:56:15.017Z,8.1385
2023-05-05T06:57:17.641Z,9.5538
2023-05-05T06:58:20.209Z,8.3385
2023-05-05T06:59:23.109Z,8.4385
2023-05-05T07:00:25.389Z,7.2462
2023-05-05T07:01:28.067Z,7.4692
2023-05-05T07:02:30.574Z,7.7538
2023-05-05T07:03:33.190Z,8.0308
2023-05-05T07:04:35.741Z,7.0385
2023-05-05T07:05:38.365Z,7.5231
2023-05-05T07:06:40.931Z,9.0308
2023-05-05T07:07:43.532Z,8.4615
2023-05-05T07:08:46.100Z,7.5231
2023-05-05T07:09:48.706Z,8.4308
2023-05-05T07:10:51.281Z,7.8462
2023-05-05T07:11:53.887Z,8.5923
2023-05-05T07:12:56.601Z,9.8000
2023-05-05T07:13:59.071Z,9.5923
2023-05-05T07:15:09.304Z,8.5462
2023-05-05T07:16:04.299Z,8.0846
2023-05-05T07:17:06.802Z,10.6308
2023-05-05T07:18:09.914Z,9.5769
2023-05-05T07:19:11.990Z,9.6308
2023-05-05T07:20:14.602Z,10.0462
2023-05-05T07:21:17.175Z,10.4769
2023-05-05T07:22:19.813Z,9.0692
2023-05-05T07:23:22.334Z,8.4538
2023-05-05T07:24:24.952Z,9.8077
2023-05-05T07:25:27.515Z,10.2462
2023-05-05T07:26:30.150Z,10.5231
2023-05-05T07:27:32.703Z,8.6923
2023-05-05T07:28:35.322Z,10.4231
2023-05-05T07:29:37.878Z,9.6308
2023-05-05T07:30:40.498Z,9.1231
2023-05-05T07:31:43.087Z,7.6538
2023-05-05T07:32:45.720Z,8.2692
2023-05-05T07:33:48.213Z,11.2077
2023-05-05T07:34:50.844Z,10.2538
2023-05-05T07:35:53.400Z,9.8846
2023-05-05T07:36:56.003Z,7.2615
2023-05-05T07:37:58.568Z,8.8769
2023-05-05T07:39:01.177Z,9.0923
2023-05-05T07:40:03.746Z,6.9462
2023-05-05T07:41:06.362Z,7.7231
2023-05-05T07:42:08.909Z,7.2462
2023-05-05T07:43:11.518Z,7.8769
2023-05-05T07:44:14.090Z,8.6077
2023-05-05T07:45:17.193Z,7.8154
2023-05-05T07:46:19.402Z,6.9692
2023-05-05T07:47:22.028Z,7.5615
2023-05-05T07:48:24.436Z,7.2231
2023-05-05T07:49:27.033Z,7.3846
2023-05-05T07:50:29.893Z,7.8462
2023-05-05T07:51:33.953Z,8.0462
2023-05-05T07:52:46.630Z,7.9769
2023-05-05T07:53:37.392Z,6.7615
2023-05-05T07:54:39.950Z,7.4385
2023-05-05T07:55:42.553Z,6.0923
2023-05-05T07:56:45.117Z,7.3462
2023-05-05T07:59:41.018Z,5.9786
2023-05-05T08:00:43.632Z,7.3615
2023-05-05T08:01:46.277Z,6.1692
2023-05-05T08:02:48.900Z,6.9923
2023-05-05T08:03:51.469Z,10.2231
2023-05-05T08:04:53.992Z,14.3000
2023-05-05T08:05:56.556Z,12.5692
2023-05-05T08:06:59.167Z,6.6154
2023-05-05T08:09:02.339Z,7.2071
2023-05-05T08:10:04.929Z,7.6154
2023-05-05T08:11:07.515Z,8.5000
2023-05-05T08:12:10.088Z,8.2000
2023-05-05T08:13:12.819Z,7.4462
2023-05-05T08:14:15.284Z,6.6538
2023-05-05T08:15:17.882Z,7.3692
2023-05-05T08:16:20.537Z,7.4077
2023-05-05T08:17:23.205Z,6.7231
2023-05-05T08:18:25.629Z,5.8000
2023-05-05T08:19:29.491Z,6.6462
2023-05-05T08:20:30.820Z,6.0846
2023-05-05T08:21:33.440Z,6.2538
2023-05-05T08:22:35.982Z,6.9538
2023-05-05T08:23:38.600Z,7.2077
2023-05-05T08:24:41.159Z,6.5385
2023-05-05T08:25:43.797Z,7.5154
2023-05-05T08:26:46.365Z,6.8385
2023-05-05T08:27:48.943Z,7.1231
2023-05-05T08:28:51.505Z,8.1077
2023-05-05T08:29:54.119Z,7.8923
2023-05-05T08:30:56.673Z,7.8077
2023-05-05T08:31:59.326Z,7.3769
2023-05-05T08:33:02.094Z,7.5923
2023-05-05T08:34:04.474Z,7.3000
2023-05-05T08:35:07.705Z,7.8615
2023-05-05T08:36:09.642Z,6.8462
2023-05-05T08:37:12.219Z,8.5538
2023-05-05T08:38:14.814Z,7.8231
2023-05-05T08:39:17.583Z,8.0385
2023-05-05T08:40:19.983Z,10.2231
2023-05-05T08:41:22.559Z,7.5769
2023-05-05T08:42:36.374Z,7.3923
2023-05-05T08:43:27.710Z,7.8077
2023-05-05T08:44:30.361Z,7.5000
2023-05-05T08:46:38.068Z,8.8857
2023-05-05T08:47:40.686Z,7.6846
2023-05-05T08:48:43.282Z,7.4308
2023-05-05T08:49:45.812Z,8.1462
2023-05-05T08:50:48.415Z,7.4000
2023-05-05T08:51:50.959Z,7.1385
2023-05-05T08:52:53.622Z,5.8231
2023-05-05T08:53:56.152Z,9.1308
2023-05-05T08:54:58.733Z,8.1385
2023-05-05T08:56:01.299Z,10.8154
2023-05-05T08:57:03.932Z,10.4846
2023-05-05T08:58:06.482Z,6.6231
2023-05-05T08:59:09.092Z,6.6462
2023-05-05T09:00:11.647Z,6.3923
2023-05-05T09:01:14.607Z,6.4769
2023-05-05T09:02:16.910Z,6.2846
2023-05-05T09:03:19.482Z,6.3923
2023-05-05T09:04:22.089Z,6.4846
2023-05-05T09:05:24.620Z,6.2154
2023-05-05T09:06:27.171Z,6.1538
2023-05-05T09:07:29.789Z,6.3692
2023-05-05T09:08:32.360Z,6.7462
2023-05-05T09:09:34.962Z,7.7462
2023-05-05T09:10:37.526Z,7.6615
2023-05-05T09:11:40.123Z,6.6154
2023-05-05T09:12:42.731Z,7.9385
2023-05-05T09:13:45.284Z,6.3538
2023-05-05T09:14:47.854Z,7.3692
2023-05-05T09:15:50.464Z,7.9769
2023-05-05T09:16:53.061Z,7.3846
2023-05-05T09:17:55.673Z,9.0000
2023-05-05T09:18:58.204Z,10.1538
2023-05-05T09:20:00.857Z,6.0000
2023-05-05T09:21:03.381Z,6.5000
2023-05-05T09:22:06.001Z,6.9154
2023-05-05T09:23:08.579Z,6.6154
2023-05-05T09:24:11.176Z,6.3308
2023-05-05T09:25:13.730Z,6.9538
2023-05-05T09:26:16.360Z,7.9154
2023-05-05T09:27:19.473Z,6.8538
2023-05-05T09:28:21.533Z,6.7615
2023-05-05T09:29:24.073Z,6.8692
2023-05-05T09:30:26.687Z,7.1538
2023-05-05T09:31:29.314Z,7.5769
2023-05-05T09:32:31.844Z,7.0231
2023-05-05T09:33:34.409Z,6.2923
2023-05-05T09:34:37.029Z,8.4385
2023-05-05T09:35:39.684Z,6.4846
2023-05-05T09:36:42.264Z,6.5308
2023-05-05T09:37:44.760Z,10.3462
2023-05-05T09:38:47.357Z,8.7615
2023-05-05T09:39:49.926Z,6.4000
2023-05-05T09:40:52.527Z,6.6615
2023-05-05T09:41:55.093Z,7.1846
2023-05-05T09:42:57.698Z,7.6462
2023-05-05T09:44:00.257Z,6.5462
2023-05-05T09:45:02.868Z,6.2615
2023-05-05T09:46:05.459Z,15.5308
2023-05-05T09:47:18.098Z,12.1077
2023-05-05T09:48:10.621Z,7.0385
2023-05-05T09:49:13.219Z,7.3923
2023-05-05T09:50:15.777Z,8.3462
2023-05-05T09:51:18.574Z,7.5000
2023-05-05T09:52:20.949Z,7.1154
2023-05-05T09:53:23.559Z,5.7923
2023-05-05T09:54:26.129Z,6.9923
2023-05-05T09:55:28.720Z,6.6846
2023-05-05T09:56:31.284Z,5.8615
2023-05-05T09:57:33.902Z,7.5077
2023-05-05T09:58:36.568Z,7.2308
2023-05-05T09:59:39.074Z,7.2923
2023-05-05T10:00:41.629Z,6.8846
2023-05-05T10:01:44.267Z,6.2000
2023-05-05T10:02:46.834Z,6.4154
2023-05-05T10:03:49.411Z,6.9077
2023-05-05T10:04:52.075Z,5.6692
2023-05-05T10:05:54.591Z,6.6538
2023-05-05T10:06:57.266Z,6.7923
2023-05-05T10:07:59.746Z,6.7231
2023-05-05T10:09:02.311Z,6.9462
2023-05-05T10:10:05.133Z,8.1154
2023-05-05T10:11:07.493Z,6.9692
2023-05-05T10:12:10.102Z,8.6769
2023-05-05T10:13:12.755Z,6.5385
2023-05-05T10:14:15.255Z,7.8000
2023-05-05T10:15:17.823Z,6.9308
2023-05-05T10:16:20.494Z,6.5385
2023-05-05T10:17:22.984Z,6.9923
2023-05-05T10:18:25.730Z,6.3692
2023-05-05T10:19:28.137Z,6.8692
2023-05-05T10:20:30.750Z,7.2308
2023-05-05T10:21:33.304Z,6.6846
2023-05-05T10:22:35.978Z,7.8385
2023-05-05T10:23:38.468Z,6.4231
2023-05-05T10:24:41.074Z,9.0769
2023-05-05T10:26:39.582Z,8.2714
2023-05-05T10:27:42.560Z,7.4077
2023-05-05T10:28:44.567Z,8.5000
2023-05-05T10:29:47.121Z,8.3077
2023-05-05T10:30:49.727Z,6.6538
2023-05-05T10:31:52.317Z,7.2538
2023-05-05T10:33:07.961Z,7.3692
2023-05-05T10:33:57.480Z,7.5923
2023-05-05T10:35:00.058Z,7.9000
2023-05-05T10:36:03.681Z,5.5385
2023-05-05T10:37:07.281Z,5.7615
2023-05-05T10:38:07.849Z,7.3077
2023-05-05T10:39:12.445Z,6.5231
2023-05-05T10:40:12.945Z,6.1692
2023-05-05T10:41:15.557Z,6.3000
2023-05-05T10:42:18.693Z,6.0538
2023-05-05T10:43:20.710Z,6.4615
2023-05-05T10:44:23.261Z,6.5769
2023-05-05T10:45:27.996Z,7.9231
2023-05-05T10:46:28.475Z,5.8923
2023-05-05T10:47:33.084Z,5.5385
2023-05-05T10:48:33.626Z,5.9231
2023-05-05T10:49:36.204Z,5.4308
2023-05-05T10:50:38.771Z,5.4077
2023-05-05T10:51:41.462Z,5.5462
2023-05-05T10:52:43.959Z,6.4385
2023-05-05T10:53:46.667Z,6.7462
2023-05-05T10:54:49.117Z,6.2538
2023-05-05T10:55:51.719Z,6.4385
2023-05-05T10:56:54.289Z,6.8385
2023-05-05T10:57:56.894Z,6.9692
2023-05-05T10:59:00.773Z,7.4615
2023-05-05T11:00:02.070Z,5.8308
2023-05-05T11:01:04.669Z,7.5231
2023-05-05T11:02:07.238Z,6.6615
2023-05-05T11:03:09.818Z,7.8077
2023-05-05T11:04:12.416Z,6.6231
2023-05-05T11:05:15.007Z,5.6846
2023-05-05T11:06:17.545Z,6.0769
2023-05-05T11:07:20.299Z,6.1231
2023-05-05T11:08:22.721Z,6.3538
2023-05-05T11:09:25.398Z,6.6846
2023-05-05T11:10:27.880Z,6.0077
2023-05-05T11:11:30.444Z,5.8923
2023-05-05T11:12:33.109Z,6.0538
2023-05-05T11:13:35.619Z,5.8308
2023-05-05T11:14:38.221Z,5.7462
2023-05-05T11:15:40.792Z,6.4231
2023-05-05T11:16:43.438Z,9.2923
2023-05-05T11:17:46.030Z,7.5538
2023-05-05T11:18:48.577Z,5.4692
2023-05-05T11:19:51.140Z,8.4692
2023-05-05T11:20:53.741Z,9.1923
2023-05-05T11:21:56.303Z,6.7692
2023-05-05T11:22:58.922Z,6.3077
2023-05-05T11:24:01.476Z,6.8462
2023-05-05T11:25:04.191Z,6.5846
2023-05-05T11:26:06.643Z,7.6231
2023-05-05T11:27:09.245Z,7.7538
2023-05-05T11:28:11.842Z,7.7000
2023-05-05T11:29:14.831Z,6.4923
2023-05-05T11:30:16.960Z,7.5846
2023-05-05T11:31:19.946Z,6.7615
2023-05-05T11:32:22.129Z,6.5615
2023-05-05T11:33:24.746Z,6.5923
2023-05-05T11:34:27.305Z,6.2615
2023-05-05T11:35:29.901Z,7.2615
2023-05-05T11:36:32.460Z,7.2154
2023-05-05T11:37:35.061Z,6.4077
2023-05-05T11:38:37.623Z,6.7615
2023-05-05T11:39:40.222Z,6.1615
2023-05-05T11:40:42.853Z,5.7769
2023-05-05T11:41:45.385Z,6.0462
2023-05-05T11:42:47.935Z,6.7154
2023-05-05T11:43:50.542Z,6.7462
2023-05-05T11:44:53.105Z,5.6846
2023-05-05T11:45:55.754Z,6.4692
2023-05-05T11:47:01.068Z,7.1615
2023-05-05T11:48:00.911Z,6.2385
2023-05-05T11:49:03.432Z,6.7538
2023-05-05T11:50:06.170Z,7.2769
2023-05-05T11:51:08.577Z,7.4538
2023-05-05T11:52:11.181Z,5.8615
2023-05-05T11:53:13.723Z,6.2385
2023-05-05T11:54:16.333Z,5.8462
2023-05-05T11:55:18.892Z,6.2538
2023-05-05T11:56:21.559Z,6.8462
2023-05-05T11:57:24.044Z,5.7077
2023-05-05T11:58:26.650Z,6.2154
2023-05-05T11:59:29.475Z,6.3000
2023-05-05T12:00:31.815Z,7.0538
2023-05-05T12:01:34.377Z,5.5462
2023-05-05T12:02:37.034Z,6.2385
2023-05-05T12:03:39.609Z,6.8692
2023-05-05T12:04:42.171Z,4.9077
2023-05-05T12:05:44.671Z,5.6769
2023-05-05T12:06:47.281Z,5.6692
2023-05-05T12:07:49.831Z,5.8615
2023-05-05T12:08:52.446Z,6.0692
2023-05-05T12:09:55.005Z,5.8462
2023-05-05T12:10:57.592Z,7.4077
2023-05-05T12:12:00.218Z,6.2077
2023-05-05T12:13:02.837Z,5.8692
2023-05-05T12:14:05.306Z,7.0000
2023-05-05T12:15:07.934Z,6.3462
2023-05-05T12:16:10.503Z,5.9923
2023-05-05T12:17:13.061Z,5.6154
2023-05-05T12:18:15.616Z,5.4923
2023-05-05T12:19:18.228Z,6.5077
2023-05-05T12:20:20.827Z,6.4154
2023-05-05T12:21:23.383Z,6.2000
2023-05-05T12:22:25.950Z,5.3692
2023-05-05T12:23:28.540Z,6.3231
2023-05-05T12:24:31.094Z,7.2538
2023-05-05T12:25:33.709Z,6.3385
2023-05-05T12:26:36.248Z,6.0692
2023-05-05T12:27:39.021Z,6.9077
2023-05-05T12:28:41.411Z,5.9231
2023-05-05T12:29:44.012Z,5.9462
2023-05-05T12:30:46.615Z,6.3692
2023-05-05T12:31:49.186Z,6.6462
2023-05-05T12:32:51.753Z,5.6538
2023-05-05T12:33:54.331Z,6.2615
2023-05-05T12:34:56.916Z,6.9308
2023-05-05T12:35:59.494Z,6.3692
2023-05-05T12:37:02.035Z,6.4769
2023-05-05T12:38:04.646Z,6.0538
2023-05-05T12:39:07.205Z,5.8077
2023-05-05T12:40:10.053Z,7.6308
2023-05-05T12:41:12.354Z,6.6308
2023-05-05T12:42:14.956Z,7.1154
2023-05-05T12:43:17.510Z,6.2923
2023-05-05T12:44:20.112Z,6.7385
2023-05-05T12:45:22.716Z,6.0692
2023-05-05T12:46:25.374Z,8.0385
2023-05-05T12:47:27.818Z,6.6077
2023-05-05T12:48:30.453Z,6.2385
2023-05-05T12:49:32.965Z,6.9692
2023-05-05T12:50:35.583Z,6.5231
2023-05-05T12:51:38.133Z,6.1077
2023-05-05T12:52:40.740Z,8.6077
2023-05-05T12:53:43.301Z,7.3923
2023-05-05T12:54:45.895Z,7.3385
2023-05-05T12:55:48.443Z,6.4923
2023-05-05T12:56:51.039Z,8.0385
2023-05-05T12:57:53.595Z,6.2000
2023-05-05T12:58:56.268Z,6.6692
2023-05-05T12:59:58.766Z,5.7154
2023-05-05T13:01:01.436Z,7.3923
2023-05-05T13:02:03.996Z,7.0308
2023-05-05T13:03:06.690Z,5.6769
2023-05-05T13:04:09.161Z,6.3923
2023-05-05T13:05:11.863Z,6.9154
2023-05-05T13:06:14.225Z,6.2692
2023-05-05T13:07:16.836Z,5.8462
2023-05-05T13:08:19.396Z,5.7538
2023-05-05T13:09:22.195Z,5.8000
2023-05-05T13:10:24.556Z,5.7308
2023-05-05T13:11:27.150Z,6.2077
2023-05-05T13:12:29.707Z,5.1692
2023-05-05T13:13:32.310Z,4.7769
2023-05-05T13:14:35.093Z,5.7308
2023-05-05T13:15:37.496Z,5.5385
2023-05-05T13:16:40.063Z,5.7077
2023-05-05T13:17:42.642Z,6.4462
2023-05-05T13:18:45.176Z,6.8615